Pirai do Norte, Brazil
Current Conditions -  °F | °C
As of 10:00 AM on Friday 24 Oct 2014 (Local Time) from SBIL Reporting Station
Light Rain Light Rain  
Wind Chill: 73°   Ceiling: 2000
Heat Index: 73°   Visibility: 2.5mi
Dew Point: 72°   Wind: 7mph
Humidity: 94%   Direction: 210°SSW
Pressure: 30.06"   Gusts: NA
Location:  13.76°S, 39.38°W
Report Text: SBIL 241300Z 21006KT 4000 -RA SCT006 BKN020 OVC100 23/22 Q1018
Loading
Personal Weather Stations






























Interactive Weather Map
Tropical Storm Tracking
New forecast layout! Learn more

10-Day Weather Forecast

Advertisements
Track Severe Weather on mobile